sensor_id;sensor_type;location;lat;lon;timestamp;P1;P2;P0
62778;PMS7003;48821;48.796;2.396;2023-02-01T00:00:34;16.00;13.50;9.00
62778;PMS7003;48821;48.796;2.396;2023-02-01T00:01:45;19.50;17.00;12.00
62778;PMS7003;48821;48.796;2.396;2023-02-01T00:02:57;16.00;14.67;11.00
62778;PMS7003;48821;48.796;2.396;2023-02-01T00:04:07;18.50;16.00;10.50
62778;PMS7003;48821;48.796;2.396;2023-02-01T00:05:19;17.67;17.00;12.00
62778;PMS7003;48821;48.796;2.396;2023-02-01T00:06:33;19.43;15.43;11.57
62778;PMS7003;48821;48.796;2.396;2023-02-01T00:07:49;22.00;16.80;12.00
62778;PMS7003;48821;48.796;2.396;2023-02-01T00:09:00;16.00;13.00;10.00
62778;PMS7003;48821;48.796;2.396;2023-02-01T00:10:11;17.00;14.00;10.00
62778;PMS7003;48821;48.796;2.396;2023-02-01T00:11:22;9.67;8.00;8.00
62778;PMS7003;48821;48.796;2.396;2023-02-01T00:12:33;20.00;16.00;11.00
62778;PMS7003;48821;48.796;2.396;2023-02-01T00:13:47;16.50;14.83;11.83
62778;PMS7003;48821;48.796;2.396;2023-02-01T00:14:58;17.00;14.50;11.00
62778;PMS7003;48821;48.796;2.396;2023-02-01T00:16:16;14.00;13.00;9.00
62778;PMS7003;48821;48.796;2.396;2023-02-01T00:17:32;14.17;13.83;10.17
62778;PMS7003;48821;48.796;2.396;2023-02-01T00:18:43;18.67;16.33;11.67
62778;PMS7003;48821;48.796;2.396;2023-02-01T00:19:55;16.00;16.00;11.50
62778;PMS7003;48821;48.796;2.396;2023-02-01T00:21:06;14.50;13.50;9.00
62778;PMS7003;48821;48.796;2.396;2023-02-01T00:22:17;17.00;12.50;9.00
62778;PMS7003;48821;48.796;2.396;2023-02-01T00:23:28;15.50;13.00;11.00
62778;PMS7003;48821;48.796;2.396;2023-02-01T00:24:41;17.00;15.00;10.00
62778;PMS7003;48821;48.796;2.396;2023-02-01T00:25:52;16.50;15.00;11.50
62778;PMS7003;48821;48.796;2.396;2023-02-01T00:27:03;14.50;14.50;10.00
62778;PMS7003;48821;48.796;2.396;2023-02-01T00:28:14;15.00;13.00;10.50
62778;PMS7003;48821;48.796;2.396;2023-02-01T00:29:27;14.83;11.50;9.50
62778;PMS7003;48821;48.796;2.396;2023-02-01T00:30:38;15.50;14.00;12.00
62778;PMS7003;48821;48.796;2.396;2023-02-01T00:31:51;13.60;13.00;9.60
62778;PMS7003;48821;48.796;2.396;2023-02-01T00:33:02;14.67;14.00;9.00
62778;PMS7003;48821;48.796;2.396;2023-02-01T00:34:14;19.50;14.00;10.50
62778;PMS7003;48821;48.796;2.396;2023-02-01T00:35:26;16.00;12.67;9.33
62778;PMS7003;48821;48.796;2.396;2023-02-01T00:36:37;21.50;15.00;10.00
62778;PMS7003;48821;48.796;2.396;2023-02-01T00:37:49;18.83;13.50;10.00
62778;PMS7003;48821;48.796;2.396;2023-02-01T00:39:00;13.50;13.50;10.00
62778;PMS7003;48821;48.796;2.396;2023-02-01T00:40:12;15.50;13.00;10.00
62778;PMS7003;48821;48.796;2.396;2023-02-01T00:41:23;14.00;11.50;9.00
62778;PMS7003;48821;48.796;2.396;2023-02-01T00:42:35;15.80;12.40;9.80
62778;PMS7003;48821;48.796;2.396;2023-02-01T00:43:46;15.00;11.00;9.00
62778;PMS7003;48821;48.796;2.396;2023-02-01T00:44:58;16.25;13.50;11.00
62778;PMS7003;48821;48.796;2.396;2023-02-01T00:46:08;15.00;15.00;11.00
62778;PMS7003;48821;48.796;2.396;2023-02-01T00:47:20;17.00;14.50;10.50
62778;PMS7003;48821;48.796;2.396;2023-02-01T00:48:31;14.00;13.00;10.00
62778;PMS7003;48821;48.796;2.396;2023-02-01T00:49:43;14.25;14.25;10.75
62778;PMS7003;48821;48.796;2.396;2023-02-01T00:50:53;12.50;12.00;9.00
62778;PMS7003;48821;48.796;2.396;2023-02-01T00:52:04;16.50;13.00;10.00
62778;PMS7003;48821;48.796;2.396;2023-02-01T00:53:15;12.00;10.00;7.00
62778;PMS7003;48821;48.796;2.396;2023-02-01T00:54:26;13.00;12.00;9.50
62778;PMS7003;48821;48.796;2.396;2023-02-01T00:55:37;10.67;9.33;7.33
62778;PMS7003;48821;48.796;2.396;2023-02-01T00:56:48;13.25;13.25;10.25
62778;PMS7003;48821;48.796;2.396;2023-02-01T00:57:59;10.67;9.67;6.33
62778;PMS7003;48821;48.796;2.396;2023-02-01T00:59:10;10.33;10.33;8.67
62778;PMS7003;48821;48.796;2.396;2023-02-01T01:00:23;13.00;12.50;10.00
62778;PMS7003;48821;48.796;2.396;2023-02-01T01:01:34;10.00;10.00;7.50
62778;PMS7003;48821;48.796;2.396;2023-02-01T01:02:45;13.00;10.50;9.00
62778;PMS7003;48821;48.796;2.396;2023-02-01T01:03:56;14.33;13.00;9.67
62778;PMS7003;48821;48.796;2.396;2023-02-01T01:05:08;13.50;12.00;8.50
62778;PMS7003;48821;48.796;2.396;2023-02-01T01:06:20;15.00;12.00;8.00
62778;PMS7003;48821;48.796;2.396;2023-02-01T01:07:33;14.00;12.00;9.00
62778;PMS7003;48821;48.796;2.396;2023-02-01T01:08:44;13.50;11.00;9.00
62778;PMS7003;48821;48.796;2.396;2023-02-01T01:09:55;14.00;11.50;9.25
62778;PMS7003;48821;48.796;2.396;2023-02-01T01:11:10;12.50;11.00;9.00
62778;PMS7003;48821;48.796;2.396;2023-02-01T01:12:23;18.00;12.00;9.00
62778;PMS7003;48821;48.796;2.396;2023-02-01T01:13:34;13.00;11.00;9.00
62778;PMS7003;48821;48.796;2.396;2023-02-01T01:14:47;13.00;11.50;8.33
62778;PMS7003;48821;48.796;2.396;2023-02-01T01:15:59;14.33;9.33;7.00
62778;PMS7003;48821;48.796;2.396;2023-02-01T01:17:13;11.75;10.00;7.50
62778;PMS7003;48821;48.796;2.396;2023-02-01T01:18:24;12.00;11.00;8.67
62778;PMS7003;48821;48.796;2.396;2023-02-01T01:19:35;16.00;11.00;8.00
62778;PMS7003;48821;48.796;2.396;2023-02-01T01:20:47;13.80;12.00;8.20
62778;PMS7003;48821;48.796;2.396;2023-02-01T01:21:58;11.75;9.00;8.00
62778;PMS7003;48821;48.796;2.396;2023-02-01T01:23:09;12.00;10.50;8.00
62778;PMS7003;48821;48.796;2.396;2023-02-01T01:24:21;11.75;11.50;7.25
62778;PMS7003;48821;48.796;2.396;2023-02-01T01:25:31;10.00;8.00;7.00
62778;PMS7003;48821;48.796;2.396;2023-02-01T01:26:42;11.00;8.00;7.00
62778;PMS7003;48821;48.796;2.396;2023-02-01T01:27:53;12.00;9.67;7.00
62778;PMS7003;48821;48.796;2.396;2023-02-01T01:29:08;9.50;8.17;7.00
62778;PMS7003;48821;48.796;2.396;2023-02-01T01:30:19;15.00;11.00;8.33
62778;PMS7003;48821;48.796;2.396;2023-02-01T01:31:31;11.75;10.00;8.00
62778;PMS7003;48821;48.796;2.396;2023-02-01T01:32:41;9.50;8.50;6.50
62778;PMS7003;48821;48.796;2.396;2023-02-01T01:33:53;11.00;9.33;8.00
62778;PMS7003;48821;48.796;2.396;2023-02-01T01:35:05;12.50;11.00;8.00
62778;PMS7003;48821;48.796;2.396;2023-02-01T01:36:16;13.00;10.00;8.00
62778;PMS7003;48821;48.796;2.396;2023-02-01T01:37:28;13.00;10.25;8.00
62778;PMS7003;48821;48.796;2.396;2023-02-01T01:38:39;10.00;8.33;6.67
62778;PMS7003;48821;48.796;2.396;2023-02-01T01:39:50;11.00;11.00;8.00
62778;PMS7003;48821;48.796;2.396;2023-02-01T01:41:01;9.67;6.33;5.00
62778;PMS7003;48821;48.796;2.396;2023-02-01T01:42:12;10.33;10.00;8.00
62778;PMS7003;48821;48.796;2.396;2023-02-01T01:43:23;9.67;9.67;8.00
62778;PMS7003;48821;48.796;2.396;2023-02-01T01:46:07;9.67;8.33;6.67
62778;PMS7003;48821;48.796;2.396;2023-02-01T01:47:18;11.00;9.00;6.67
62778;PMS7003;48821;48.796;2.396;2023-02-01T01:48:29;12.00;11.00;7.00
62778;PMS7003;48821;48.796;2.396;2023-02-01T01:49:40;11.00;9.00;7.00
62778;PMS7003;48821;48.796;2.396;2023-02-01T01:50:54;7.00;7.00;6.00
62778;PMS7003;48821;48.796;2.396;2023-02-01T01:52:11;14.00;11.67;9.00
62778;PMS7003;48821;48.796;2.396;2023-02-01T01:53:32;10.67;8.67;7.33
62778;PMS7003;48821;48.796;2.396;2023-02-01T01:54:50;16.33;8.67;7.00
62778;PMS7003;48821;48.796;2.396;2023-02-01T01:56:06;8.50;7.67;6.33
62778;PMS7003;48821;48.796;2.396;2023-02-01T01:57:30;9.67;7.50;6.00
62778;PMS7003;48821;48.796;2.396;2023-02-01T01:58:46;7.67;6.83;6.00
62778;PMS7003;48821;48.796;2.396;2023-02-01T02:01:13;9.00;6.00;5.00
62778;PMS7003;48821;48.796;2.396;2023-02-01T02:02:24;5.00;5.00;4.00
62778;PMS7003;48821;48.796;2.396;2023-02-01T02:03:35;6.00;5.00;4.00
62778;PMS7003;48821;48.796;2.396;2023-02-01T02:04:54;8.17;6.67;4.83
62778;PMS7003;48821;48.796;2.396;2023-02-01T02:06:13;5.50;4.50;3.17
62778;PMS7003;48821;48.796;2.396;2023-02-01T02:07:37;10.00;6.00;4.00
62778;PMS7003;48821;48.796;2.396;2023-02-01T02:08:51;8.00;3.67;2.67
62778;PMS7003;48821;48.796;2.396;2023-02-01T02:10:06;8.00;6.33;4.00
62778;PMS7003;48821;48.796;2.396;2023-02-01T02:11:23;7.83;5.00;4.50
62778;PMS7003;48821;48.796;2.396;2023-02-01T02:12:38;5.67;5.00;4.00
62778;PMS7003;48821;48.796;2.396;2023-02-01T02:13:53;5.50;3.67;3.33
62778;PMS7003;48821;48.796;2.396;2023-02-01T02:15:10;6.00;4.33;3.00
62778;PMS7003;48821;48.796;2.396;2023-02-01T02:17:55;7.50;5.00;3.50
62778;PMS7003;48821;48.796;2.396;2023-02-01T02:32:15;3.17;3.00;2.33
62778;PMS7003;48821;48.796;2.396;2023-02-01T02:33:57;8.00;7.33;5.00
62778;PMS7003;48821;48.796;2.396;2023-02-01T02:40:08;9.00;4.00;3.00
62778;PMS7003;48821;48.796;2.396;2023-02-01T02:46:25;7.00;5.00;3.67
62778;PMS7003;48821;48.796;2.396;2023-02-01T02:49:58;4.50;3.67;3.00
62778;PMS7003;48821;48.796;2.396;2023-02-01T02:51:45;4.50;4.17;2.83
62778;PMS7003;48821;48.796;2.396;2023-02-01T02:55:17;6.00;4.00;3.00
62778;PMS7003;48821;48.796;2.396;2023-02-01T02:56:28;7.67;4.33;2.67
62778;PMS7003;48821;48.796;2.396;2023-02-01T02:58:01;7.33;4.00;2.83
62778;PMS7003;48821;48.796;2.396;2023-02-01T02:59:35;6.33;4.00;3.67
62778;PMS7003;48821;48.796;2.396;2023-02-01T03:01:09;7.50;5.00;4.33
62778;PMS7003;48821;48.796;2.396;2023-02-01T03:02:41;4.00;4.00;2.50
62778;PMS7003;48821;48.796;2.396;2023-02-01T03:04:13;5.17;2.83;2.00
62778;PMS7003;48821;48.796;2.396;2023-02-01T03:05:36;5.50;5.50;4.00
62778;PMS7003;48821;48.796;2.396;2023-02-01T03:06:52;7.00;5.00;3.00
62778;PMS7003;48821;48.796;2.396;2023-02-01T03:08:10;5.00;5.00;3.33
62778;PMS7003;48821;48.796;2.396;2023-02-01T03:09:28;7.33;4.00;3.67
62778;PMS7003;48821;48.796;2.396;2023-02-01T03:12:20;8.00;4.50;4.00
62778;PMS7003;48821;48.796;2.396;2023-02-01T03:13:53;4.83;4.00;3.00
62778;PMS7003;48821;48.796;2.396;2023-02-01T03:15:13;6.33;4.17;3.17
62778;PMS7003;48821;48.796;2.396;2023-02-01T03:17:46;9.67;5.00;3.00
62778;PMS7003;48821;48.796;2.396;2023-02-01T03:19:03;6.83;3.83;3.17
62778;PMS7003;48821;48.796;2.396;2023-02-01T03:20:29;3.33;3.33;2.17
62778;PMS7003;48821;48.796;2.396;2023-02-01T03:21:45;5.83;4.17;3.67
62778;PMS7003;48821;48.796;2.396;2023-02-01T03:23:03;3.50;1.00;1.00
62778;PMS7003;48821;48.796;2.396;2023-02-01T03:24:26;5.17;4.00;3.50
62778;PMS7003;48821;48.796;2.396;2023-02-01T03:25:47;8.67;5.50;3.50
62778;PMS7003;48821;48.796;2.396;2023-02-01T03:27:08;8.50;5.67;4.00
62778;PMS7003;48821;48.796;2.396;2023-02-01T03:28:28;8.00;4.00;4.00
62778;PMS7003;48821;48.796;2.396;2023-02-01T03:29:50;5.67;3.83;3.00
62778;PMS7003;48821;48.796;2.396;2023-02-01T03:31:11;5.17;4.00;3.67
62778;PMS7003;48821;48.796;2.396;2023-02-01T03:32:26;6.33;3.83;2.67
62778;PMS7003;48821;48.796;2.396;2023-02-01T03:33:38;4.00;3.67;3.00
62778;PMS7003;48821;48.796;2.396;2023-02-01T03:34:49;5.00;5.00;3.00
62778;PMS7003;48821;48.796;2.396;2023-02-01T03:36:13;7.67;4.17;2.83
62778;PMS7003;48821;48.796;2.396;2023-02-01T03:37:29;5.00;4.67;3.00
62778;PMS7003;48821;48.796;2.396;2023-02-01T03:38:41;7.00;4.00;3.00
62778;PMS7003;48821;48.796;2.396;2023-02-01T03:39:59;5.50;3.83;3.00
62778;PMS7003;48821;48.796;2.396;2023-02-01T03:42:35;11.00;4.33;3.67
62778;PMS7003;48821;48.796;2.396;2023-02-01T03:43:54;12.33;5.33;4.00
62778;PMS7003;48821;48.796;2.396;2023-02-01T03:45:18;6.50;4.67;3.00
62778;PMS7003;48821;48.796;2.396;2023-02-01T03:46:39;3.00;2.00;1.00
62778;PMS7003;48821;48.796;2.396;2023-02-01T03:48:00;5.50;3.83;3.33
62778;PMS7003;48821;48.796;2.396;2023-02-01T03:49:18;7.00;7.00;4.33
62778;PMS7003;48821;48.796;2.396;2023-02-01T03:50:38;3.50;3.33;2.33
62778;PMS7003;48821;48.796;2.396;2023-02-01T03:51:54;6.00;4.00;4.00
62778;PMS7003;48821;48.796;2.396;2023-02-01T03:53:13;7.00;4.33;3.33
62778;PMS7003;48821;48.796;2.396;2023-02-01T03:54:29;8.17;5.67;3.17
62778;PMS7003;48821;48.796;2.396;2023-02-01T03:55:44;5.00;4.00;3.50
62778;PMS7003;48821;48.796;2.396;2023-02-01T03:56:59;5.67;4.00;2.50
62778;PMS7003;48821;48.796;2.396;2023-02-01T03:58:18;6.83;5.00;3.83
62778;PMS7003;48821;48.796;2.396;2023-02-01T03:59:34;4.67;3.67;3.00
62778;PMS7003;48821;48.796;2.396;2023-02-01T04:00:52;5.33;4.83;3.50
62778;PMS7003;48821;48.796;2.396;2023-02-01T04:02:07;6.00;3.83;2.50
62778;PMS7003;48821;48.796;2.396;2023-02-01T04:03:18;10.00;4.00;3.00
62778;PMS7003;48821;48.796;2.396;2023-02-01T04:04:29;5.00;3.00;3.00
62778;PMS7003;48821;48.796;2.396;2023-02-01T04:05:43;7.67;4.00;3.00
62778;PMS7003;48821;48.796;2.396;2023-02-01T04:06:56;7.17;5.17;4.17
62778;PMS7003;48821;48.796;2.396;2023-02-01T04:08:09;7.50;4.67;3.00
62778;PMS7003;48821;48.796;2.396;2023-02-01T04:09:23;9.33;5.17;3.67
62778;PMS7003;48821;48.796;2.396;2023-02-01T04:10:36;6.33;4.00;3.00
62778;PMS7003;48821;48.796;2.396;2023-02-01T04:11:46;8.33;4.00;3.00
62778;PMS7003;48821;48.796;2.396;2023-02-01T04:12:57;6.33;4.00;3.00
62778;PMS7003;48821;48.796;2.396;2023-02-01T04:14:10;5.50;4.33;3.00
62778;PMS7003;48821;48.796;2.396;2023-02-01T04:15:21;6.33;4.00;3.00
62778;PMS7003;48821;48.796;2.396;2023-02-01T04:16:32;5.33;2.33;1.33
62778;PMS7003;48821;48.796;2.396;2023-02-01T04:17:45;5.67;3.33;2.50
62778;PMS7003;48821;48.796;2.396;2023-02-01T04:18:59;7.00;5.00;3.83
62778;PMS7003;48821;48.796;2.396;2023-02-01T04:20:10;6.67;4.67;3.33
62778;PMS7003;48821;48.796;2.396;2023-02-01T04:21:21;4.33;3.00;2.00
62778;PMS7003;48821;48.796;2.396;2023-02-01T04:22:32;5.67;4.00;3.00
62778;PMS7003;48821;48.796;2.396;2023-02-01T04:23:45;8.50;4.83;3.50
62778;PMS7003;48821;48.796;2.396;2023-02-01T04:24:55;4.67;2.33;2.00
62778;PMS7003;48821;48.796;2.396;2023-02-01T04:26:06;7.67;5.67;4.00
62778;PMS7003;48821;48.796;2.396;2023-02-01T04:27:20;7.17;5.33;3.33
62778;PMS7003;48821;48.796;2.396;2023-02-01T04:28:33;6.00;3.33;2.00
62778;PMS7003;48821;48.796;2.396;2023-02-01T04:29:46;7.00;4.00;2.00
62778;PMS7003;48821;48.796;2.396;2023-02-01T04:31:02;5.83;5.00;4.00
62778;PMS7003;48821;48.796;2.396;2023-02-01T04:32:16;7.33;4.00;3.00
62778;PMS7003;48821;48.796;2.396;2023-02-01T04:33:29;3.50;3.00;2.17
62778;PMS7003;48821;48.796;2.396;2023-02-01T04:34:42;2.50;2.50;2.33
62778;PMS7003;48821;48.796;2.396;2023-02-01T04:35:55;7.33;5.00;3.33
62778;PMS7003;48821;48.796;2.396;2023-02-01T04:37:09;5.00;4.50;3.00
62778;PMS7003;48821;48.796;2.396;2023-02-01T04:38:22;8.83;5.67;3.67
62778;PMS7003;48821;48.796;2.396;2023-02-01T04:39:35;4.83;3.67;2.00
62778;PMS7003;48821;48.796;2.396;2023-02-01T04:40:48;8.00;5.50;3.00
62778;PMS7003;48821;48.796;2.396;2023-02-01T04:42:02;10.17;5.00;2.83
62778;PMS7003;48821;48.796;2.396;2023-02-01T04:43:16;5.67;3.00;3.00
62778;PMS7003;48821;48.796;2.396;2023-02-01T04:44:29;4.83;4.00;3.00
62778;PMS7003;48821;48.796;2.396;2023-02-01T04:45:46;3.33;3.00;2.50
62778;PMS7003;48821;48.796;2.396;2023-02-01T04:47:03;5.17;4.67;2.83
62778;PMS7003;48821;48.796;2.396;2023-02-01T04:48:16;5.50;3.67;2.67
62778;PMS7003;48821;48.796;2.396;2023-02-01T04:49:31;7.17;3.67;2.67
62778;PMS7003;48821;48.796;2.396;2023-02-01T04:50:45;4.17;3.50;2.00
62778;PMS7003;48821;48.796;2.396;2023-02-01T04:52:00;6.33;3.00;2.17
62778;PMS7003;48821;48.796;2.396;2023-02-01T04:53:14;4.00;4.00;2.83
62778;PMS7003;48821;48.796;2.396;2023-02-01T04:54:28;7.83;4.83;3.00
62778;PMS7003;48821;48.796;2.396;2023-02-01T04:55:41;7.67;4.67;3.33
62778;PMS7003;48821;48.796;2.396;2023-02-01T04:56:55;10.33;3.50;1.83
62778;PMS7003;48821;48.796;2.396;2023-02-01T04:58:09;6.00;5.50;3.33
62778;PMS7003;48821;48.796;2.396;2023-02-01T04:59:23;5.50;3.50;2.50
62778;PMS7003;48821;48.796;2.396;2023-02-01T05:00:36;5.17;3.00;2.00
62778;PMS7003;48821;48.796;2.396;2023-02-01T05:01:50;5.17;3.00;2.00
62778;PMS7003;48821;48.796;2.396;2023-02-01T05:03:03;5.17;3.50;2.33
62778;PMS7003;48821;48.796;2.396;2023-02-01T05:04:16;4.17;3.83;2.67
62778;PMS7003;48821;48.796;2.396;2023-02-01T05:05:28;7.33;4.00;2.33
62778;PMS7003;48821;48.796;2.396;2023-02-01T05:06:41;5.20;3.00;2.00
62778;PMS7003;48821;48.796;2.396;2023-02-01T05:07:54;6.17;4.50;3.33
62778;PMS7003;48821;48.796;2.396;2023-02-01T05:09:07;4.33;3.17;2.00
62778;PMS7003;48821;48.796;2.396;2023-02-01T05:10:21;4.00;4.00;2.00
62778;PMS7003;48821;48.796;2.396;2023-02-01T05:11:34;5.00;2.00;1.00
62778;PMS7003;48821;48.796;2.396;2023-02-01T05:13:20;4.83;3.83;2.00
62778;PMS7003;48821;48.796;2.396;2023-02-01T05:14:52;4.33;3.00;1.50
62778;PMS7003;48821;48.796;2.396;2023-02-01T05:16:05;3.50;2.33;2.00
62778;PMS7003;48821;48.796;2.396;2023-02-01T05:17:19;6.50;4.50;3.00
62778;PMS7003;48821;48.796;2.396;2023-02-01T05:18:32;7.83;4.17;3.00
62778;PMS7003;48821;48.796;2.396;2023-02-01T05:19:45;5.17;3.83;2.17
62778;PMS7003;48821;48.796;2.396;2023-02-01T05:20:58;4.67;2.33;2.00
62778;PMS7003;48821;48.796;2.396;2023-02-01T05:22:11;3.00;2.83;2.17
62778;PMS7003;48821;48.796;2.396;2023-02-01T05:23:25;3.83;3.83;2.83
62778;PMS7003;48821;48.796;2.396;2023-02-01T05:24:38;3.33;2.00;1.17
62778;PMS7003;48821;48.796;2.396;2023-02-01T05:25:51;5.00;3.33;1.67
62778;PMS7003;48821;48.796;2.396;2023-02-01T05:27:04;6.00;3.67;2.00
62778;PMS7003;48821;48.796;2.396;2023-02-01T05:28:15;7.00;5.00;3.00
62778;PMS7003;48821;48.796;2.396;2023-02-01T05:29:26;5.00;3.00;2.00
62778;PMS7003;48821;48.796;2.396;2023-02-01T05:30:36;5.67;3.00;2.00
62778;PMS7003;48821;48.796;2.396;2023-02-01T05:31:48;5.75;3.00;2.00
62778;PMS7003;48821;48.796;2.396;2023-02-01T05:33:02;8.17;3.50;2.50
62778;PMS7003;48821;48.796;2.396;2023-02-01T05:34:16;5.50;3.00;2.00
62778;PMS7003;48821;48.796;2.396;2023-02-01T05:35:29;3.33;2.83;2.17
62778;PMS7003;48821;48.796;2.396;2023-02-01T05:36:43;7.67;4.00;2.00
62778;PMS7003;48821;48.796;2.396;2023-02-01T05:37:56;7.17;3.67;2.17
62778;PMS7003;48821;48.796;2.396;2023-02-01T05:39:06;6.00;3.67;3.00
62778;PMS7003;48821;48.796;2.396;2023-02-01T05:40:18;7.67;3.00;2.00
62778;PMS7003;48821;48.796;2.396;2023-02-01T05:41:28;10.00;4.00;2.67
62778;PMS7003;48821;48.796;2.396;2023-02-01T05:42:40;3.75;3.00;3.00
62778;PMS7003;48821;48.796;2.396;2023-02-01T05:43:53;6.67;4.17;3.00
62778;PMS7003;48821;48.796;2.396;2023-02-01T05:45:06;7.00;3.67;2.67
62778;PMS7003;48821;48.796;2.396;2023-02-01T05:46:20;6.00;4.00;2.00
62778;PMS7003;48821;48.796;2.396;2023-02-01T05:47:33;4.67;4.00;3.00
62778;PMS7003;48821;48.796;2.396;2023-02-01T05:48:47;5.17;3.00;2.00
62778;PMS7003;48821;48.796;2.396;2023-02-01T05:50:00;5.83;2.67;1.50
62778;PMS7003;48821;48.796;2.396;2023-02-01T05:51:13;7.33;4.00;3.00
62778;PMS7003;48821;48.796;2.396;2023-02-01T05:52:26;4.00;3.00;2.50
62778;PMS7003;48821;48.796;2.396;2023-02-01T05:53:40;6.83;4.17;2.00
62778;PMS7003;48821;48.796;2.396;2023-02-01T05:54:53;4.00;2.83;2.00
62778;PMS7003;48821;48.796;2.396;2023-02-01T05:56:06;3.33;3.33;2.50
62778;PMS7003;48821;48.796;2.396;2023-02-01T05:57:20;6.67;3.00;2.00
62778;PMS7003;48821;48.796;2.396;2023-02-01T05:58:33;6.50;4.17;2.50
62778;PMS7003;48821;48.796;2.396;2023-02-01T05:59:46;5.33;4.83;2.00
62778;PMS7003;48821;48.796;2.396;2023-02-01T06:00:59;6.67;6.00;3.00
62778;PMS7003;48821;48.796;2.396;2023-02-01T06:02:13;4.67;4.00;3.17
62778;PMS7003;48821;48.796;2.396;2023-02-01T06:03:26;7.17;5.67;3.83
62778;PMS7003;48821;48.796;2.396;2023-02-01T06:04:40;6.67;3.17;2.50
62778;PMS7003;48821;48.796;2.396;2023-02-01T06:05:51;6.00;4.00;2.67
62778;PMS7003;48821;48.796;2.396;2023-02-01T06:07:02;7.33;4.00;3.00
62778;PMS7003;48821;48.796;2.396;2023-02-01T06:08:15;6.83;4.33;3.00
62778;PMS7003;48821;48.796;2.396;2023-02-01T06:09:29;4.67;4.67;3.17
62778;PMS7003;48821;48.796;2.396;2023-02-01T06:10:43;4.33;2.33;1.50
62778;PMS7003;48821;48.796;2.396;2023-02-01T06:11:56;6.00;3.83;2.83
62778;PMS7003;48821;48.796;2.396;2023-02-01T06:13:10;3.50;2.83;2.00
62778;PMS7003;48821;48.796;2.396;2023-02-01T06:14:23;5.50;5.00;4.00
62778;PMS7003;48821;48.796;2.396;2023-02-01T06:15:37;5.17;2.00;1.00
62778;PMS7003;48821;48.796;2.396;2023-02-01T06:16:50;3.17;3.00;2.33
62778;PMS7003;48821;48.796;2.396;2023-02-01T06:18:03;7.00;4.67;3.00
62778;PMS7003;48821;48.796;2.396;2023-02-01T06:19:17;7.83;4.67;3.00
62778;PMS7003;48821;48.796;2.396;2023-02-01T06:20:30;9.17;5.00;2.00
62778;PMS7003;48821;48.796;2.396;2023-02-01T06:21:43;3.00;3.00;2.00
62778;PMS7003;48821;48.796;2.396;2023-02-01T06:22:57;8.67;4.67;2.00
62778;PMS7003;48821;48.796;2.396;2023-02-01T06:24:08;8.00;4.00;2.67
62778;PMS7003;48821;48.796;2.396;2023-02-01T06:25:18;11.00;5.00;4.00
62778;PMS7003;48821;48.796;2.396;2023-02-01T06:26:29;11.33;5.00;4.00
62778;PMS7003;48821;48.796;2.396;2023-02-01T06:27:41;6.50;3.00;2.00
62778;PMS7003;48821;48.796;2.396;2023-02-01T06:28:55;5.17;2.83;2.00
62778;PMS7003;48821;48.796;2.396;2023-02-01T06:30:09;9.33;4.67;3.67
62778;PMS7003;48821;48.796;2.396;2023-02-01T06:31:22;9.33;4.67;3.00
62778;PMS7003;48821;48.796;2.396;2023-02-01T06:32:36;6.50;4.33;2.50
62778;PMS7003;48821;48.796;2.396;2023-02-01T06:33:49;9.67;3.83;2.33
62778;PMS7003;48821;48.796;2.396;2023-02-01T06:35:01;5.00;4.00;3.00
62778;PMS7003;48821;48.796;2.396;2023-02-01T06:36:12;6.33;5.00;3.00
62778;PMS7003;48821;48.796;2.396;2023-02-01T06:37:25;6.33;3.83;2.83
62778;PMS7003;48821;48.796;2.396;2023-02-01T06:38:40;7.83;4.00;3.00
62778;PMS7003;48821;48.796;2.396;2023-02-01T06:39:50;10.33;4.67;3.00
62778;PMS7003;48821;48.796;2.396;2023-02-01T06:41:04;5.60;4.00;3.00
62778;PMS7003;48821;48.796;2.396;2023-02-01T06:42:17;6.00;6.00;3.83
62778;PMS7003;48821;48.796;2.396;2023-02-01T06:43:31;5.83;3.67;2.83
62778;PMS7003;48821;48.796;2.396;2023-02-01T06:44:47;4.50;3.83;3.00
62778;PMS7003;48821;48.796;2.396;2023-02-01T06:46:10;8.17;4.17;3.00
62778;PMS7003;48821;48.796;2.396;2023-02-01T06:47:22;8.00;5.00;4.00
62778;PMS7003;48821;48.796;2.396;2023-02-01T06:48:33;11.00;6.00;4.67
62778;PMS7003;48821;48.796;2.396;2023-02-01T06:49:44;11.00;5.00;3.00
62778;PMS7003;48821;48.796;2.396;2023-02-01T06:50:55;8.00;5.00;4.00
62778;PMS7003;48821;48.796;2.396;2023-02-01T06:52:08;5.67;4.83;3.00
62778;PMS7003;48821;48.796;2.396;2023-02-01T06:53:22;6.33;4.33;2.67
62778;PMS7003;48821;48.796;2.396;2023-02-01T06:54:32;12.67;5.00;3.00
62778;PMS7003;48821;48.796;2.396;2023-02-01T06:55:53;6.67;3.50;3.00
62778;PMS7003;48821;48.796;2.396;2023-02-01T06:57:07;7.50;5.33;3.50
62778;PMS7003;48821;48.796;2.396;2023-02-01T06:58:21;7.00;3.67;2.83
62778;PMS7003;48821;48.796;2.396;2023-02-01T06:59:35;8.00;4.83;2.83
62778;PMS7003;48821;48.796;2.396;2023-02-01T07:00:48;7.83;6.17;3.17
62778;PMS7003;48821;48.796;2.396;2023-02-01T07:01:58;8.33;5.00;3.00
62778;PMS7003;48821;48.796;2.396;2023-02-01T07:03:09;11.00;5.00;3.33
62778;PMS7003;48821;48.796;2.396;2023-02-01T07:04:20;7.33;3.67;2.33
62778;PMS7003;48821;48.796;2.396;2023-02-01T07:05:31;8.67;4.00;3.00
62778;PMS7003;48821;48.796;2.396;2023-02-01T07:06:43;5.50;2.00;2.00
62778;PMS7003;48821;48.796;2.396;2023-02-01T07:07:53;10.00;5.00;3.00
62778;PMS7003;48821;48.796;2.396;2023-02-01T07:09:04;7.00;4.00;3.00
62778;PMS7003;48821;48.796;2.396;2023-02-01T07:10:18;7.83;5.17;4.00
62778;PMS7003;48821;48.796;2.396;2023-02-01T07:11:31;8.17;5.33;3.17
62778;PMS7003;48821;48.796;2.396;2023-02-01T07:12:41;6.00;4.33;4.00
62778;PMS7003;48821;48.796;2.396;2023-02-01T07:13:53;6.33;4.33;2.67
62778;PMS7003;48821;48.796;2.396;2023-02-01T07:15:03;10.67;5.00;3.67
62778;PMS7003;48821;48.796;2.396;2023-02-01T07:16:18;10.33;5.00;3.33
62778;PMS7003;48821;48.796;2.396;2023-02-01T07:17:32;8.67;5.67;3.50
62778;PMS7003;48821;48.796;2.396;2023-02-01T07:18:45;7.33;2.50;1.83
62778;PMS7003;48821;48.796;2.396;2023-02-01T07:19:59;7.67;4.83;2.50
62778;PMS7003;48821;48.796;2.396;2023-02-01T07:21:14;5.00;3.67;2.33
62778;PMS7003;48821;48.796;2.396;2023-02-01T07:22:27;4.00;2.00;1.00
62778;PMS7003;48821;48.796;2.396;2023-02-01T07:23:40;8.17;5.33;3.33
62778;PMS7003;48821;48.796;2.396;2023-02-01T07:24:53;9.00;7.00;4.00
62778;PMS7003;48821;48.796;2.396;2023-02-01T07:26:07;6.17;4.50;3.67
62778;PMS7003;48821;48.796;2.396;2023-02-01T07:27:23;5.17;3.67;3.00
62778;PMS7003;48821;48.796;2.396;2023-02-01T07:28:38;5.00;4.50;2.00
62778;PMS7003;48821;48.796;2.396;2023-02-01T07:29:52;9.00;4.00;3.00
62778;PMS7003;48821;48.796;2.396;2023-02-01T07:31:03;9.33;4.00;3.00
62778;PMS7003;48821;48.796;2.396;2023-02-01T07:32:21;5.67;5.17;4.00
62778;PMS7003;48821;48.796;2.396;2023-02-01T07:33:34;7.83;5.33;3.33
62778;PMS7003;48821;48.796;2.396;2023-02-01T07:34:47;5.00;5.00;4.00
62778;PMS7003;48821;48.796;2.396;2023-02-01T07:36:01;8.00;6.00;3.17
62778;PMS7003;48821;48.796;2.396;2023-02-01T07:37:16;7.33;4.17;3.00
62778;PMS7003;48821;48.796;2.396;2023-02-01T07:38:29;7.33;4.33;3.33
62778;PMS7003;48821;48.796;2.396;2023-02-01T07:39:43;4.67;3.50;3.00
62778;PMS7003;48821;48.796;2.396;2023-02-01T07:41:00;10.00;6.00;3.00
62778;PMS7003;48821;48.796;2.396;2023-02-01T07:42:14;7.33;4.00;3.67
62778;PMS7003;48821;48.796;2.396;2023-02-01T07:43:27;5.67;4.33;3.00
62778;PMS7003;48821;48.796;2.396;2023-02-01T07:44:41;5.83;4.17;3.17
62778;PMS7003;48821;48.796;2.396;2023-02-01T07:45:51;10.67;6.00;4.00